createdAt,value
2024-03-11T00:01:01.025Z,151168.84
2024-03-11T00:03:02.940Z,151142.31
2024-03-11T00:05:04.615Z,151139.78
2024-03-11T00:07:06.286Z,151167.56
2024-03-11T00:09:07.770Z,151142.31
2024-03-11T00:11:09.294Z,151186.50
2024-03-11T00:13:10.894Z,151118.34
2024-03-11T00:15:12.422Z,151120.88
2024-03-11T00:17:14.737Z,151070.31
2024-03-11T00:19:16.187Z,151138.53
2024-03-11T00:21:17.642Z,151144.84
2024-03-11T00:23:19.305Z,151177.66
2024-03-11T00:25:20.947Z,151134.72
2024-03-11T00:27:22.481Z,151125.94
2024-03-11T00:29:24.044Z,151196.56
2024-03-11T00:31:28.337Z,151172.59
2024-03-11T00:33:29.925Z,151181.44
2024-03-11T00:35:31.412Z,151091.81
2024-03-11T00:37:33.213Z,151118.34
2024-03-11T00:39:35.761Z,151129.72
2024-03-11T00:41:37.323Z,151091.81
2024-03-11T00:43:38.943Z,151187.78
2024-03-11T00:45:40.490Z,151175.13
2024-03-11T00:47:43.554Z,151166.31
2024-03-11T00:49:46.541Z,151129.72
2024-03-11T00:51:48.153Z,151124.66
2024-03-11T00:53:49.693Z,151122.13
2024-03-11T00:55:51.266Z,151095.63
2024-03-11T00:57:52.754Z,151112.00
2024-03-11T00:59:54.316Z,151089.28
2024-03-11T01:01:55.798Z,151149.91
2024-03-11T01:03:57.525Z,151137.25
2024-03-11T01:05:59.904Z,151110.75
2024-03-11T01:08:01.800Z,151089.28
2024-03-11T01:10:03.782Z,151000.97
2024-03-11T01:12:05.542Z,151056.47
2024-03-11T01:14:07.149Z,151051.41
2024-03-11T01:16:08.784Z,151040.06
2024-03-11T01:18:10.447Z,150956.81
2024-03-11T01:20:12.712Z,151046.38
2024-03-11T01:22:14.624Z,150960.59
2024-03-11T01:24:16.196Z,151033.75
2024-03-11T01:26:17.785Z,151061.50
2024-03-11T01:28:19.350Z,151046.38
2024-03-11T01:30:20.849Z,151013.56
2024-03-11T01:32:22.470Z,151006.03
2024-03-11T01:34:24.095Z,150988.31
2024-03-11T01:36:25.672Z,151000.97
2024-03-11T01:38:27.241Z,150984.56
2024-03-11T01:40:28.865Z,151011.03
2024-03-11T01:42:30.447Z,151018.63
2024-03-11T01:44:31.978Z,150983.31
2024-03-11T01:46:34.761Z,151032.47
2024-03-11T01:48:36.514Z,150950.47
2024-03-11T01:50:39.478Z,150950.47
2024-03-11T01:52:46.128Z,150978.25
2024-03-11T01:54:48.031Z,150958.06
2024-03-11T01:56:49.674Z,151018.63
2024-03-11T01:58:51.796Z,150975.72
2024-03-11T02:00:53.335Z,151048.88
2024-03-11T02:02:56.093Z,150979.50
2024-03-11T02:04:57.946Z,150905.06
2024-03-11T02:06:59.436Z,150978.25
2024-03-11T02:09:00.975Z,150940.41
2024-03-11T02:11:02.563Z,150954.28
2024-03-11T02:13:04.195Z,151012.28
2024-03-11T02:15:06.268Z,150915.19
2024-03-11T02:17:08.019Z,150963.13
2024-03-11T02:19:13.175Z,150945.44
2024-03-11T02:21:14.622Z,150926.50
2024-03-11T02:23:16.413Z,150964.38
2024-03-11T02:25:20.270Z,150910.13
2024-03-11T02:27:21.772Z,150882.41
2024-03-11T02:29:23.245Z,150891.22
2024-03-11T02:31:24.719Z,150889.94
2024-03-11T02:33:26.311Z,150864.72
2024-03-11T02:35:28.025Z,150806.72
2024-03-11T02:37:29.832Z,150843.28
2024-03-11T02:39:31.351Z,150816.84
2024-03-11T02:41:32.969Z,150782.75
2024-03-11T02:43:34.526Z,150842.06
2024-03-11T02:45:36.074Z,150765.13
2024-03-11T02:47:37.683Z,150878.63
2024-03-11T02:49:39.325Z,150796.66
2024-03-11T02:51:40.887Z,150806.72
2024-03-11T02:53:42.518Z,150773.97
2024-03-11T02:55:44.018Z,150763.84
2024-03-11T02:57:45.489Z,150751.28
2024-03-11T02:59:47.222Z,150726.06
2024-03-11T03:01:48.658Z,150680.66
2024-03-11T03:03:50.178Z,150718.53
2024-03-11T03:05:51.941Z,150659.25
2024-03-11T03:07:53.399Z,150726.06
2024-03-11T03:09:55.076Z,150650.44
2024-03-11T03:11:56.871Z,150650.44
2024-03-11T03:13:58.392Z,150694.56
2024-03-11T03:15:59.918Z,150582.41
2024-03-11T03:18:01.636Z,150618.91
2024-03-11T03:20:03.361Z,150689.50
2024-03-11T03:22:05.118Z,150610.13
2024-03-11T03:24:06.992Z,150597.50
2024-03-11T03:26:09.167Z,150569.81
2024-03-11T03:28:10.857Z,150558.44
2024-03-11T03:30:12.864Z,150543.34
2024-03-11T03:32:14.439Z,150547.13
2024-03-11T03:34:15.999Z,150532.03
2024-03-11T03:36:17.651Z,150579.88
2024-03-11T03:38:19.114Z,150582.41
2024-03-11T03:40:20.717Z,150462.69
2024-03-11T03:42:22.371Z,150455.13
2024-03-11T03:44:23.818Z,150510.63
2024-03-11T03:46:25.287Z,150520.66
2024-03-11T03:48:27.055Z,150455.13
2024-03-11T03:50:28.544Z,150497.97
2024-03-11T03:52:30.102Z,150503.03
2024-03-11T03:54:32.001Z,150519.41
2024-03-11T03:56:33.490Z,150509.34
2024-03-11T03:58:36.041Z,150456.38
2024-03-11T04:00:37.933Z,150515.63
2024-03-11T04:02:39.532Z,150508.09
2024-03-11T04:04:42.312Z,150513.13
2024-03-11T04:06:44.032Z,150438.75
2024-03-11T04:08:45.908Z,150428.69
2024-03-11T04:10:48.283Z,150515.63
2024-03-11T04:12:50.454Z,150514.41
2024-03-11T04:14:51.987Z,150486.66
2024-03-11T04:16:53.559Z,150506.81
2024-03-11T04:18:56.072Z,150530.75
2024-03-11T04:20:57.588Z,150492.97
2024-03-11T04:22:59.254Z,150497.97
2024-03-11T04:25:01.244Z,150469.00
2024-03-11T04:27:02.693Z,150451.38
2024-03-11T04:29:04.279Z,150413.56
2024-03-11T04:31:05.944Z,150453.84
2024-03-11T04:33:07.894Z,150426.19
2024-03-11T04:35:10.040Z,150414.81
2024-03-11T04:37:11.650Z,150340.56
2024-03-11T04:39:13.165Z,150296.50
2024-03-11T04:41:14.828Z,150355.66
2024-03-11T04:43:16.594Z,150312.84
2024-03-11T04:45:18.032Z,150338.03
2024-03-11T04:47:19.625Z,150377.06
2024-03-11T04:49:21.186Z,150368.28
2024-03-11T04:51:22.638Z,150400.97
2024-03-11T04:53:24.209Z,150421.13
2024-03-11T04:55:26.510Z,150394.66
2024-03-11T04:57:27.975Z,150402.25
2024-03-11T04:59:29.462Z,150324.19
2024-03-11T05:01:31.104Z,150370.78
2024-03-11T05:03:33.157Z,150321.69
2024-03-11T05:05:34.715Z,150407.28
2024-03-11T05:07:37.199Z,150319.16
2024-03-11T05:09:38.633Z,150365.75
2024-03-11T05:11:40.426Z,150275.09
2024-03-11T05:13:41.914Z,150293.97
2024-03-11T05:15:47.082Z,150307.84
2024-03-11T05:17:49.057Z,150301.53
2024-03-11T05:19:50.537Z,150320.41
2024-03-11T05:21:51.993Z,150320.41
2024-03-11T05:23:53.708Z,150329.25
2024-03-11T05:25:55.162Z,150329.25
2024-03-11T05:27:56.613Z,150331.72
2024-03-11T05:29:58.260Z,150241.13
2024-03-11T05:32:00.077Z,150237.34
2024-03-11T05:34:01.587Z,150276.34
2024-03-11T05:36:03.414Z,150299.00
2024-03-11T05:38:05.331Z,150287.72
2024-03-11T05:40:08.176Z,150310.38
2024-03-11T05:42:10.179Z,150282.66
2024-03-11T05:44:11.684Z,150286.44
2024-03-11T05:46:13.449Z,150260.00
2024-03-11T05:48:15.520Z,150292.72
2024-03-11T05:50:17.140Z,150296.50
2024-03-11T05:52:18.597Z,150227.31
2024-03-11T05:54:20.048Z,150258.75
2024-03-11T05:56:21.519Z,150228.50
2024-03-11T05:58:23.226Z,150249.91
2024-03-11T06:00:24.717Z,150169.38
2024-03-11T06:02:26.236Z,150187.03
2024-03-11T06:04:27.760Z,150252.44
2024-03-11T06:06:29.444Z,150242.38
2024-03-11T06:08:30.932Z,150252.44
2024-03-11T06:10:32.463Z,150241.13
2024-03-11T06:12:34.086Z,150251.16
2024-03-11T06:14:35.531Z,150204.66
2024-03-11T06:16:36.999Z,150280.13
2024-03-11T06:18:38.608Z,150268.81
2024-03-11T06:20:40.136Z,150199.59
2024-03-11T06:22:41.635Z,150210.91
2024-03-11T06:24:43.495Z,150149.25
2024-03-11T06:26:45.046Z,150229.78
2024-03-11T06:28:49.867Z,150187.03
2024-03-11T06:30:52.353Z,150247.44
2024-03-11T06:32:53.929Z,150227.31
2024-03-11T06:34:55.456Z,150228.50
2024-03-11T06:36:57.096Z,150184.50
2024-03-11T06:38:58.537Z,150213.44
2024-03-11T06:41:00.037Z,150203.38
2024-03-11T06:43:01.664Z,150121.59
2024-03-11T06:45:03.468Z,150221.00
2024-03-11T06:47:05.276Z,150212.16
2024-03-11T06:49:06.846Z,150161.84
2024-03-11T06:51:13.365Z,150234.81
2024-03-11T06:53:14.916Z,150208.38
2024-03-11T06:55:18.229Z,150179.47
2024-03-11T06:57:19.808Z,150149.25
2024-03-11T06:59:24.004Z,150222.25
2024-03-11T07:01:27.553Z,150199.59
2024-03-11T07:03:29.033Z,150271.31
2024-03-11T07:05:31.726Z,150239.88
2024-03-11T07:07:34.701Z,150254.94
2024-03-11T07:09:36.141Z,150260.00
2024-03-11T07:11:37.693Z,150156.81
2024-03-11T07:13:39.371Z,150130.38
2024-03-11T07:15:40.823Z,150189.50
2024-03-11T07:17:42.512Z,150190.78
2024-03-11T07:19:44.225Z,150242.38
2024-03-11T07:21:45.693Z,150188.25
2024-03-11T07:23:47.165Z,150124.13
2024-03-11T07:25:48.984Z,150233.56
2024-03-11T07:27:50.511Z,150163.13
2024-03-11T07:29:52.195Z,150176.94
2024-03-11T07:31:53.770Z,150187.03
2024-03-11T07:33:55.352Z,150147.97
2024-03-11T07:35:57.055Z,150117.81
2024-03-11T07:37:58.610Z,150136.69
2024-03-11T07:40:00.166Z,150145.50
2024-03-11T07:42:01.663Z,150110.25
2024-03-11T07:44:03.121Z,150141.72
2024-03-11T07:46:04.887Z,150038.59
2024-03-11T07:48:08.125Z,150143.00
2024-03-11T07:50:10.204Z,150086.34
2024-03-11T07:52:11.947Z,150129.13
2024-03-11T07:54:13.478Z,150132.91
2024-03-11T07:56:15.065Z,150154.28
2024-03-11T07:58:16.766Z,150124.13
2024-03-11T08:00:19.041Z,150185.78
2024-03-11T08:02:20.685Z,150119.06
2024-03-11T08:04:22.165Z,150149.25
2024-03-11T08:06:23.610Z,150082.63
2024-03-11T08:08:25.202Z,150120.34
2024-03-11T08:10:27.031Z,150153.03
2024-03-11T08:12:29.030Z,150178.22
2024-03-11T08:14:30.552Z,150109.00
2024-03-11T08:16:32.133Z,150168.13
2024-03-11T08:18:33.594Z,150117.81
2024-03-11T08:20:35.074Z,150102.75
2024-03-11T08:22:37.118Z,150020.97
2024-03-11T08:24:38.668Z,150110.25
2024-03-11T08:26:40.214Z,150150.50
2024-03-11T08:28:41.832Z,150175.69
2024-03-11T08:30:44.260Z,150258.75
2024-03-11T08:32:46.090Z,150221.00
2024-03-11T08:34:47.589Z,150145.50
2024-03-11T08:36:49.039Z,150165.63
2024-03-11T08:38:50.790Z,150110.25
2024-03-11T08:40:52.400Z,150189.50
2024-03-11T08:42:53.929Z,150202.13
2024-03-11T08:44:55.469Z,150147.97
2024-03-11T08:46:57.423Z,150182.00
2024-03-11T08:48:59.296Z,150239.88
2024-03-11T08:51:00.930Z,150244.91
2024-03-11T08:53:02.519Z,150195.81
2024-03-11T08:55:04.573Z,150197.06
2024-03-11T08:57:06.236Z,150110.25
2024-03-11T08:59:07.789Z,150222.25
2024-03-11T09:01:09.302Z,150239.88
2024-03-11T09:03:10.980Z,150228.50
2024-03-11T09:05:13.013Z,150190.78
2024-03-11T09:07:14.492Z,150226.03
2024-03-11T09:09:16.100Z,150179.47
2024-03-11T09:11:17.652Z,150210.91
2024-03-11T09:13:19.119Z,150228.50
2024-03-11T09:15:21.021Z,150190.78
2024-03-11T09:17:22.993Z,150204.66
2024-03-11T09:19:24.525Z,150297.75
2024-03-11T09:21:26.185Z,150300.28
2024-03-11T09:23:27.817Z,150205.91
2024-03-11T09:25:29.451Z,150187.03
2024-03-11T09:27:30.928Z,150292.72
2024-03-11T09:29:32.670Z,150265.03
2024-03-11T09:31:34.137Z,150287.72
2024-03-11T09:33:36.020Z,150295.22
2024-03-11T09:35:37.577Z,150327.97
2024-03-11T09:37:42.614Z,150256.22
2024-03-11T09:39:44.761Z,150330.50
2024-03-11T09:41:48.258Z,150380.84
2024-03-11T09:43:52.345Z,150378.31
2024-03-11T09:45:54.277Z,150339.28
2024-03-11T09:47:56.327Z,150312.84
2024-03-11T09:49:57.892Z,150364.47
2024-03-11T09:52:00.050Z,150446.31
2024-03-11T09:54:02.509Z,150332.97
2024-03-11T09:56:05.097Z,150327.97
2024-03-11T09:58:08.931Z,150377.06
2024-03-11T10:00:11.413Z,150350.66
2024-03-11T10:02:19.967Z,150302.78
2024-03-11T10:04:27.011Z,150411.06
2024-03-11T10:06:28.573Z,150321.69
2024-03-11T10:08:30.347Z,150252.44
2024-03-11T10:10:31.832Z,150349.38
2024-03-11T10:12:33.402Z,150193.28
2024-03-11T10:14:39.856Z,150301.53
2024-03-11T10:16:41.633Z,150353.13
2024-03-11T10:18:53.095Z,150356.91
2024-03-11T10:20:58.339Z,150335.50
2024-03-11T10:23:06.914Z,150409.81
2024-03-11T10:25:08.472Z,150380.84
2024-03-11T10:27:21.015Z,150344.34
2024-03-11T10:29:31.877Z,150295.22
2024-03-11T10:31:33.388Z,150161.84
2024-03-11T10:33:35.047Z,150283.91
2024-03-11T10:35:36.712Z,150314.09
2024-03-11T10:37:38.919Z,150406.03
2024-03-11T10:39:41.459Z,150315.38
2024-03-11T10:41:43.291Z,150429.97
2024-03-11T10:43:44.759Z,150268.81
2024-03-11T10:45:46.283Z,150436.22
2024-03-11T10:47:48.149Z,150431.22
2024-03-11T10:49:51.876Z,150354.38
2024-03-11T10:51:56.735Z,150423.66
2024-03-11T10:54:04.063Z,150336.78
2024-03-11T10:56:09.406Z,150348.13
2024-03-11T10:58:12.228Z,150398.47
2024-03-11T11:00:15.272Z,150346.88
2024-03-11T11:02:21.967Z,150254.94
2024-03-11T11:04:24.366Z,150343.06
2024-03-11T11:06:25.945Z,150353.13
2024-03-11T11:08:31.030Z,150327.97
2024-03-11T11:10:33.566Z,150329.25
2024-03-11T11:12:35.541Z,150336.78
2024-03-11T11:14:38.053Z,150348.13
2024-03-11T11:16:42.652Z,150325.47
2024-03-11T11:18:45.539Z,150382.09
2024-03-11T11:20:49.577Z,150399.72
2024-03-11T11:22:51.351Z,150384.63
2024-03-11T11:24:53.014Z,150367.00
2024-03-11T11:26:54.538Z,150305.31
2024-03-11T11:29:02.128Z,150423.66
2024-03-11T11:31:17.498Z,150205.91
2024-03-11T11:33:56.924Z,150390.94
2024-03-11T11:35:58.741Z,150373.25
2024-03-11T11:38:25.895Z,150421.13
2024-03-11T11:40:29.197Z,150461.44
2024-03-11T11:42:35.304Z,150491.72
2024-03-11T11:44:36.850Z,150489.19
2024-03-11T11:46:46.209Z,150442.53
2024-03-11T11:48:47.749Z,150400.97
2024-03-11T11:50:49.381Z,150406.03
2024-03-11T11:53:03.408Z,150431.22
2024-03-11T11:55:05.716Z,150407.28
2024-03-11T11:57:12.762Z,150403.50
2024-03-11T11:59:16.258Z,150373.25
2024-03-11T12:01:17.890Z,150378.31
2024-03-11T12:03:36.155Z,150462.69
2024-03-11T12:05:38.184Z,150406.03
2024-03-11T12:07:40.380Z,150504.31
2024-03-11T12:09:49.173Z,150588.72
2024-03-11T12:11:56.303Z,150515.63
2024-03-11T12:13:57.794Z,150529.50
2024-03-11T12:16:10.614Z,150573.59
2024-03-11T12:18:14.045Z,150463.94
2024-03-11T12:20:15.658Z,150349.38
2024-03-11T12:22:17.424Z,150466.47
2024-03-11T12:24:18.981Z,150456.38
2024-03-11T12:26:21.137Z,150437.50
2024-03-11T12:28:23.406Z,150515.63
2024-03-11T12:30:25.514Z,150411.06
2024-03-11T12:32:27.033Z,150501.78
2024-03-11T12:34:28.721Z,150480.31
2024-03-11T12:36:30.578Z,150511.88
2024-03-11T12:38:32.658Z,150519.41
2024-03-11T12:40:34.403Z,150433.69
2024-03-11T12:42:35.903Z,150557.19
2024-03-11T12:44:37.468Z,150427.44
2024-03-11T12:46:40.233Z,150544.59
2024-03-11T12:48:41.831Z,150499.25
2024-03-11T12:50:44.660Z,150559.72
2024-03-11T12:52:46.757Z,150445.06
2024-03-11T12:54:48.313Z,150544.59
2024-03-11T12:57:05.585Z,150549.66
2024-03-11T12:59:11.609Z,150461.44
2024-03-11T13:01:15.183Z,150562.22
2024-03-11T13:03:20.245Z,150519.41
2024-03-11T13:05:22.311Z,150608.88
2024-03-11T13:07:27.653Z,150577.34
2024-03-11T13:09:29.196Z,150563.50
2024-03-11T13:11:30.974Z,150513.13
2024-03-11T13:13:32.763Z,150486.66
2024-03-11T13:15:34.288Z,150606.34
2024-03-11T13:17:36.046Z,150539.56
2024-03-11T13:19:37.542Z,150581.13
2024-03-11T13:21:39.029Z,150540.81
2024-03-11T13:23:40.742Z,150508.09
2024-03-11T13:25:42.215Z,150481.63
2024-03-11T13:27:43.715Z,150469.00
2024-03-11T13:29:46.469Z,150568.56
2024-03-11T13:31:49.349Z,150532.03
2024-03-11T13:33:50.870Z,150539.56
2024-03-11T13:35:53.131Z,150603.81
2024-03-11T13:37:54.786Z,150558.44
2024-03-11T13:39:56.300Z,150544.59
2024-03-11T13:42:02.066Z,150577.34
2024-03-11T13:44:04.042Z,150511.88
2024-03-11T13:46:05.624Z,150481.63
2024-03-11T13:48:08.921Z,150544.59
2024-03-11T13:50:10.689Z,150563.50
2024-03-11T13:52:12.254Z,150532.03
2024-03-11T13:54:13.762Z,150528.25
2024-03-11T13:56:15.352Z,150579.88
2024-03-11T13:58:17.326Z,150569.81
2024-03-11T14:00:19.048Z,150567.28
2024-03-11T14:02:20.829Z,150544.59
2024-03-11T14:04:22.679Z,150554.72
2024-03-11T14:06:24.375Z,150567.28
2024-03-11T14:08:26.178Z,150520.66
2024-03-11T14:10:27.845Z,150583.66
2024-03-11T14:12:29.390Z,150589.97
2024-03-11T14:14:30.900Z,150616.44
2024-03-11T14:16:32.400Z,150530.75
2024-03-11T14:18:33.880Z,150564.75
2024-03-11T14:20:35.538Z,150509.34
2024-03-11T14:22:36.997Z,150613.91
2024-03-11T14:24:38.714Z,150635.34
2024-03-11T14:26:41.302Z,150602.56
2024-03-11T14:28:43.370Z,150571.06
2024-03-11T14:30:45.289Z,150595.03
2024-03-11T14:32:47.557Z,150621.44
2024-03-11T14:34:49.036Z,150629.03
2024-03-11T14:36:53.155Z,150579.88
2024-03-11T14:38:54.654Z,150569.81
2024-03-11T14:40:56.358Z,150615.19
2024-03-11T14:43:02.099Z,150563.50
2024-03-11T14:45:07.659Z,150611.38
2024-03-11T14:47:09.116Z,150578.59
2024-03-11T14:49:10.761Z,150595.03
2024-03-11T14:51:12.246Z,150622.72
2024-03-11T14:53:14.630Z,150616.44
2024-03-11T14:55:16.349Z,150579.88
2024-03-11T14:57:17.921Z,150578.59
2024-03-11T14:59:19.369Z,150649.19
2024-03-11T15:01:21.110Z,150663.03
2024-03-11T15:03:22.801Z,150645.41
2024-03-11T15:05:24.257Z,150521.94
2024-03-11T15:07:25.919Z,150586.19
2024-03-11T15:09:27.406Z,150608.88
2024-03-11T15:11:29.048Z,150650.44
2024-03-11T15:13:30.921Z,150597.50
2024-03-11T15:15:33.154Z,150622.72
2024-03-11T15:17:34.772Z,150607.59
2024-03-11T15:19:36.420Z,150569.81
2024-03-11T15:21:38.100Z,150664.28
2024-03-11T15:23:40.297Z,150611.38
2024-03-11T15:25:41.783Z,150644.13
2024-03-11T15:27:44.348Z,150666.81
2024-03-11T15:29:45.836Z,150728.56
2024-03-11T15:31:47.269Z,150652.97
2024-03-11T15:33:48.755Z,150650.44
2024-03-11T15:35:50.589Z,150582.41
2024-03-11T15:37:52.320Z,150564.75
2024-03-11T15:39:54.009Z,150635.34
2024-03-11T15:53:55.191Z,150780.28
2024-03-11T15:55:56.778Z,150713.47
2024-03-11T15:57:59.237Z,150694.56
2024-03-11T16:00:00.822Z,150606.34
2024-03-11T16:02:02.368Z,150659.25
2024-03-11T16:04:04.036Z,150731.09
2024-03-11T16:06:05.721Z,150656.75
2024-03-11T16:08:08.274Z,150704.63
2024-03-11T16:10:10.634Z,150708.41
2024-03-11T16:12:12.177Z,150734.88
2024-03-11T16:14:14.910Z,150718.53
2024-03-11T16:16:16.481Z,150665.56
2024-03-11T16:18:18.115Z,150664.28
2024-03-11T16:20:22.686Z,150587.44
2024-03-11T16:22:24.218Z,150617.66
2024-03-11T16:24:25.883Z,150625.22
2024-03-11T16:26:27.453Z,150679.41
2024-03-11T16:28:29.003Z,150608.88
2024-03-11T16:30:30.771Z,150658.03
2024-03-11T16:32:32.396Z,150629.03
2024-03-11T16:34:34.047Z,150640.34
2024-03-11T16:36:35.809Z,150650.44
2024-03-11T16:38:37.351Z,150645.41
2024-03-11T16:40:38.990Z,150621.44
2024-03-11T16:42:41.520Z,150621.44
2024-03-11T16:44:45.557Z,150597.50
2024-03-11T16:46:47.405Z,150622.72
2024-03-11T16:48:49.085Z,150652.97
2024-03-11T16:50:50.662Z,150615.19
2024-03-11T16:52:52.342Z,150629.03
2024-03-11T16:54:53.918Z,150626.50
2024-03-11T16:56:55.450Z,150637.88
2024-03-11T16:58:57.429Z,150632.81
2024-03-11T17:00:59.034Z,150603.81
2024-03-11T17:03:01.769Z,150683.19
2024-03-11T17:05:03.447Z,150586.19
2024-03-11T17:07:05.019Z,150652.97
2024-03-11T17:09:06.612Z,150606.34
2024-03-11T17:11:08.472Z,150598.75
2024-03-11T17:13:10.091Z,150557.19
2024-03-11T17:15:15.743Z,150543.34
2024-03-11T17:17:17.500Z,150573.59
2024-03-11T17:19:19.584Z,150574.88
2024-03-11T17:21:21.293Z,150589.97
2024-03-11T17:23:22.974Z,150562.22
2024-03-11T17:25:25.545Z,150569.81
2024-03-11T17:27:27.100Z,150635.34
2024-03-11T17:29:28.634Z,150552.19
2024-03-11T17:31:30.157Z,150550.91
2024-03-11T17:33:31.833Z,150558.44
2024-03-11T17:35:33.428Z,150549.66
2024-03-11T17:37:34.987Z,150562.22
2024-03-11T17:39:36.535Z,150534.56
2024-03-11T17:41:38.150Z,150591.22
2024-03-11T17:43:39.841Z,150545.88
2024-03-11T17:45:45.705Z,150593.75
2024-03-11T17:47:49.123Z,150620.19
2024-03-11T17:49:51.006Z,150627.75
2024-03-11T17:51:52.554Z,150615.19
2024-03-11T17:53:54.117Z,150588.72
2024-03-11T17:55:55.745Z,150623.97
2024-03-11T17:57:58.784Z,150591.22
2024-03-11T18:00:00.404Z,150547.13
2024-03-11T18:02:02.019Z,150554.72
2024-03-11T18:04:04.207Z,150586.19
2024-03-11T18:06:05.752Z,150630.28
2024-03-11T18:08:08.425Z,150647.91
2024-03-11T18:10:10.249Z,150651.72
2024-03-11T18:12:11.960Z,150626.50
2024-03-11T18:14:13.629Z,150660.50
2024-03-11T18:16:15.254Z,150661.78
2024-03-11T18:18:17.006Z,150668.09
2024-03-11T18:20:18.853Z,150748.75
2024-03-11T18:22:20.421Z,150685.72
2024-03-11T18:24:22.071Z,150654.22
2024-03-11T18:26:23.705Z,150627.75
2024-03-11T18:28:25.430Z,150675.66
2024-03-11T18:30:27.787Z,150724.78
2024-03-11T18:32:29.412Z,150780.28
2024-03-11T18:34:31.065Z,150741.16
2024-03-11T18:36:32.724Z,150768.91
2024-03-11T18:38:34.279Z,150710.94
2024-03-11T18:40:36.122Z,150723.53
2024-03-11T18:42:42.493Z,150690.78
2024-03-11T18:44:44.015Z,150714.72
2024-03-11T18:46:45.537Z,150726.06
2024-03-11T18:48:47.192Z,150713.47
2024-03-11T18:50:48.771Z,150784.03
2024-03-11T18:52:58.620Z,150756.31
2024-03-11T18:55:03.261Z,150811.78
2024-03-11T18:57:05.340Z,150801.72
2024-03-11T18:59:06.924Z,150779.03
2024-03-11T19:01:10.054Z,150718.53
2024-03-11T19:03:11.704Z,150761.31
2024-03-11T19:05:14.340Z,150828.16
2024-03-11T19:07:16.019Z,150806.72
2024-03-11T19:09:17.565Z,150797.94
2024-03-11T19:11:19.134Z,150750.00
2024-03-11T19:13:21.659Z,150820.63
2024-03-11T19:15:26.175Z,150750.00
2024-03-11T19:17:28.312Z,150781.50
2024-03-11T19:19:30.849Z,150779.03
2024-03-11T19:21:32.394Z,150786.56
2024-03-11T19:23:38.460Z,150760.13
2024-03-11T19:25:39.984Z,150753.78
2024-03-11T19:27:42.676Z,150833.22
2024-03-11T19:29:44.232Z,150863.44
2024-03-11T19:31:45.751Z,150809.25
2024-03-11T19:33:47.500Z,150823.09
2024-03-11T19:35:49.520Z,150824.38
2024-03-11T19:38:10.487Z,150865.97
2024-03-11T19:40:36.213Z,150790.34
2024-03-11T19:43:02.038Z,150858.44
2024-03-11T19:45:27.258Z,150843.28
2024-03-11T19:48:07.688Z,150728.56
2024-03-11T19:50:46.698Z,150796.66
2024-03-11T19:53:25.441Z,150815.56
2024-03-11T19:56:10.371Z,150779.03
2024-03-11T19:58:21.112Z,150847.06
2024-03-11T20:00:39.309Z,150878.63
2024-03-11T20:03:08.084Z,150842.06
2024-03-11T20:05:47.238Z,150802.94
2024-03-11T20:08:14.380Z,150849.59
2024-03-11T20:10:37.524Z,150857.19
2024-03-11T20:12:48.821Z,150867.25
2024-03-11T20:15:16.960Z,150825.63
2024-03-11T20:17:55.570Z,150815.56
2024-03-11T20:20:33.842Z,150900.06
2024-03-11T20:23:12.677Z,150826.91
2024-03-11T20:25:51.335Z,150814.31
2024-03-11T20:28:18.263Z,150830.69
2024-03-11T20:30:23.336Z,150849.59
2024-03-11T20:32:46.826Z,150854.66
2024-03-11T20:34:48.433Z,150797.94
2024-03-11T20:36:50.158Z,150858.44
2024-03-11T20:38:52.030Z,150936.63
2024-03-11T20:40:55.161Z,150902.59
2024-03-11T20:42:56.774Z,150903.84
2024-03-11T20:44:58.309Z,150922.75
2024-03-11T20:46:59.833Z,150877.34
2024-03-11T20:49:01.428Z,150876.09
2024-03-11T20:51:03.152Z,150805.47
2024-03-11T20:53:04.897Z,150842.06
2024-03-11T20:55:07.033Z,150891.22
2024-03-11T20:57:08.576Z,150896.25
2024-03-11T20:59:10.107Z,150865.97
2024-03-11T21:01:11.654Z,150935.34
2024-03-11T21:03:13.476Z,150852.13
2024-03-11T21:05:15.053Z,150947.94
2024-03-11T21:07:16.566Z,150893.75
2024-03-11T21:09:18.302Z,150922.75
2024-03-11T21:11:20.511Z,150881.16
2024-03-11T21:13:22.022Z,150881.16
2024-03-11T21:15:23.954Z,150927.78
2024-03-11T21:17:25.776Z,150947.94
2024-03-11T21:19:27.293Z,150935.34
2024-03-11T21:21:55.559Z,150941.69
2024-03-11T21:23:57.076Z,150913.91
2024-03-11T21:25:58.587Z,150867.25
2024-03-11T21:28:00.360Z,150953.00
2024-03-11T21:30:04.198Z,150949.22
2024-03-11T21:32:06.157Z,151000.97
2024-03-11T21:34:07.819Z,150927.78
2024-03-11T21:36:09.656Z,150887.41
2024-03-11T21:38:17.957Z,150889.94
2024-03-11T21:40:27.552Z,150924.03
2024-03-11T21:42:29.099Z,150946.69
2024-03-11T21:44:30.741Z,150900.06
2024-03-11T21:46:32.259Z,150935.34
2024-03-11T21:48:33.968Z,150913.91
2024-03-11T21:50:35.605Z,150944.22
2024-03-11T21:52:37.121Z,150882.41
2024-03-11T21:54:38.750Z,150865.97
2024-03-11T21:56:40.398Z,150787.81
2024-03-11T21:58:41.927Z,150824.38
2024-03-11T22:00:44.259Z,150868.50
2024-03-11T22:02:45.896Z,150868.50
2024-03-11T22:04:54.233Z,150902.59
2024-03-11T22:06:55.844Z,150854.66
2024-03-11T22:08:57.515Z,150929.03
2024-03-11T22:10:59.042Z,150937.88
2024-03-11T22:13:01.120Z,150878.63
2024-03-11T22:15:03.585Z,150829.41
2024-03-11T22:17:05.812Z,150932.84
2024-03-11T22:19:07.801Z,150879.88
2024-03-11T22:21:09.364Z,150908.84
2024-03-11T22:23:10.869Z,150897.53
2024-03-11T22:25:12.569Z,150912.66
2024-03-11T22:27:14.222Z,150842.06
2024-03-11T22:29:16.209Z,150839.53
2024-03-11T22:31:17.717Z,150926.50
2024-03-11T22:33:19.707Z,150913.91
2024-03-11T22:35:21.291Z,150980.78
2024-03-11T22:37:22.843Z,150915.19
2024-03-11T22:39:24.939Z,150951.75
2024-03-11T22:41:26.890Z,150951.75
2024-03-11T22:43:28.528Z,150966.88
2024-03-11T22:45:30.314Z,150906.31
2024-03-11T22:47:31.929Z,150936.63
2024-03-11T22:49:34.187Z,150941.69
2024-03-11T22:51:36.193Z,150946.69
2024-03-11T22:53:37.750Z,150884.88
2024-03-11T22:55:40.235Z,150902.59
2024-03-11T23:05:35.901Z,150835.75
2024-03-11T23:07:37.397Z,150873.56
2024-03-11T23:09:38.945Z,150893.75
2024-03-11T23:11:40.990Z,150906.31
2024-03-11T23:13:42.728Z,150927.78
2024-03-11T23:15:44.273Z,150942.94
2024-03-11T23:17:45.960Z,150960.59
2024-03-11T23:19:47.436Z,150956.81
2024-03-11T23:21:48.919Z,150961.84
2024-03-11T23:23:50.614Z,150979.50
2024-03-11T23:25:52.111Z,151006.03
2024-03-11T23:27:54.547Z,150983.31
2024-03-11T23:29:56.197Z,150964.38
2024-03-11T23:31:57.662Z,150978.25
2024-03-11T23:33:59.139Z,150924.03
2024-03-11T23:36:00.742Z,150941.69
2024-03-11T23:38:06.857Z,150941.69
2024-03-11T23:40:12.801Z,150971.94
2024-03-11T23:42:14.525Z,150953.00
2024-03-11T23:44:15.966Z,150888.69
2024-03-11T23:46:17.419Z,150969.41